createdAt,value
2023-05-19T00:00:02.193Z,101131.29
2023-05-19T00:04:33.208Z,101134.21
2023-05-19T00:08:37.813Z,101133.98
2023-05-19T00:12:40.143Z,101128.01
2023-05-19T00:16:42.557Z,101130.38
2023-05-19T00:20:44.616Z,101128.80
2023-05-19T00:24:46.546Z,101122.90
2023-05-19T00:28:52.254Z,101117.80
2023-05-19T00:32:55.128Z,101113.95
2023-05-19T00:36:57.080Z,101109.85
2023-05-19T00:41:00.604Z,101109.65
2023-05-19T00:45:02.664Z,101105.64
2023-05-19T00:49:04.595Z,101105.51
2023-05-19T00:53:07.489Z,101100.53
2023-05-19T00:57:09.926Z,101107.73
2023-05-19T01:01:14.054Z,101109.43
2023-05-19T01:05:16.481Z,101110.80
2023-05-19T01:09:19.797Z,101114.50
2023-05-19T01:13:21.817Z,101109.50
2023-05-19T01:17:40.510Z,101107.15
2023-05-19T01:22:12.620Z,101106.19
2023-05-19T01:26:14.565Z,101103.73
2023-05-19T01:30:25.421Z,101100.78
2023-05-19T01:34:27.550Z,101103.28
2023-05-19T01:38:29.792Z,101103.10
2023-05-19T01:42:36.884Z,101099.56
2023-05-19T01:46:40.908Z,101095.15
2023-05-19T01:50:43.094Z,101092.83
2023-05-19T01:54:45.474Z,101091.56
2023-05-19T01:58:58.403Z,101091.79
2023-05-19T02:03:29.809Z,101090.67
2023-05-19T02:07:43.314Z,101091.98
2023-05-19T02:12:00.702Z,101095.66
2023-05-19T02:16:06.969Z,101093.88
2023-05-19T02:20:09.455Z,101094.18
2023-05-19T02:24:11.564Z,101096.91
2023-05-19T02:28:13.508Z,101095.53
2023-05-19T02:32:15.673Z,101092.60
2023-05-19T02:36:17.749Z,101091.83
2023-05-19T02:40:19.911Z,101091.56
2023-05-19T02:44:21.877Z,101089.98
2023-05-19T02:48:23.820Z,101087.63
2023-05-19T02:52:25.927Z,101089.64
2023-05-19T02:56:27.913Z,101088.79
2023-05-19T03:00:30.024Z,101086.46
2023-05-19T03:04:32.153Z,101091.66
2023-05-19T03:08:35.607Z,101094.11
2023-05-19T03:12:37.708Z,101089.80
2023-05-19T03:16:41.774Z,101091.05
2023-05-19T03:20:44.329Z,101093.39
2023-05-19T03:24:46.452Z,101091.11
2023-05-19T03:28:49.085Z,101092.39
2023-05-19T03:32:51.686Z,101097.67
2023-05-19T03:36:53.857Z,101099.73
2023-05-19T03:40:56.511Z,101098.02
2023-05-19T03:44:58.580Z,101101.14
2023-05-19T03:49:00.834Z,101102.38
2023-05-19T03:53:11.681Z,101100.53
2023-05-19T03:57:15.917Z,101106.92
2023-05-19T04:01:17.877Z,101106.39
2023-05-19T04:05:19.904Z,101108.23
2023-05-19T04:09:23.678Z,101112.54
2023-05-19T04:13:25.720Z,101115.15
2023-05-19T04:17:28.843Z,101114.06
2023-05-19T04:21:30.916Z,101111.92
2023-05-19T04:25:33.160Z,101117.59
2023-05-19T04:29:35.247Z,101118.21
2023-05-19T04:33:37.548Z,101120.48
2023-05-19T04:37:40.159Z,101120.13
2023-05-19T04:41:44.384Z,101121.58
2023-05-19T04:45:49.765Z,101117.73
2023-05-19T04:49:55.189Z,101112.09
2023-05-19T04:53:57.828Z,101111.17
2023-05-19T04:58:00.234Z,101111.11
2023-05-19T05:02:04.159Z,101115.00
2023-05-19T05:06:06.508Z,101110.27
2023-05-19T05:10:09.669Z,101113.95
2023-05-19T05:14:11.928Z,101115.20
2023-05-19T05:18:14.967Z,101114.41
2023-05-19T05:22:17.425Z,101112.63
2023-05-19T05:26:22.697Z,101112.42
2023-05-19T05:30:25.334Z,101111.83
2023-05-19T05:34:28.041Z,101115.00
2023-05-19T05:38:30.954Z,101118.27
2023-05-19T05:42:32.980Z,101122.13
2023-05-19T05:46:35.210Z,101117.24
2023-05-19T05:50:38.532Z,101118.58
2023-05-19T05:54:41.142Z,101124.09
2023-05-19T05:58:43.560Z,101121.67
2023-05-19T06:02:52.907Z,101120.61
2023-05-19T06:07:00.515Z,101119.88
2023-05-19T06:11:08.437Z,101120.73
2023-05-19T06:15:11.087Z,101118.70
2023-05-19T06:19:45.557Z,101124.48
2023-05-19T06:23:47.681Z,101122.20
2023-05-19T06:27:52.426Z,101125.35
2023-05-19T06:31:55.748Z,101127.93
2023-05-19T06:35:59.363Z,101129.91
2023-05-19T06:40:01.462Z,101132.20
2023-05-19T06:44:06.259Z,101132.41
2023-05-19T06:48:08.819Z,101133.58
2023-05-19T06:52:11.837Z,101134.55
2023-05-19T06:56:15.852Z,101130.96
2023-05-19T07:00:19.355Z,101130.62
2023-05-19T07:04:23.661Z,101134.84
2023-05-19T07:08:27.398Z,101136.50
2023-05-19T07:12:29.549Z,101137.67
2023-05-19T07:16:32.239Z,101134.26
2023-05-19T07:20:35.647Z,101133.73
2023-05-19T07:24:37.656Z,101132.73
2023-05-19T07:28:41.497Z,101138.52
2023-05-19T07:32:43.824Z,101137.58
2023-05-19T07:36:46.046Z,101138.96
2023-05-19T07:40:48.106Z,101139.86
2023-05-19T07:44:50.149Z,101137.33
2023-05-19T07:48:52.211Z,101138.02
2023-05-19T07:52:54.412Z,101136.39
2023-05-19T07:56:56.440Z,101139.70
2023-05-19T08:00:58.826Z,101134.84
2023-05-19T08:05:00.820Z,101129.83
2023-05-19T08:09:03.362Z,101127.14
2023-05-19T08:13:05.466Z,101123.72
2023-05-19T08:17:07.592Z,101121.81
2023-05-19T08:21:09.487Z,101127.42
2023-05-19T08:25:11.457Z,101129.91
2023-05-19T08:29:13.407Z,101127.05
2023-05-19T08:33:15.798Z,101123.95
2023-05-19T08:37:17.785Z,101124.75
2023-05-19T08:41:21.187Z,101131.83
2023-05-19T08:45:23.987Z,101127.64
2023-05-19T08:49:33.179Z,101129.19
2023-05-19T08:53:43.571Z,101125.98
2023-05-19T08:57:46.091Z,101131.15
2023-05-19T09:01:49.458Z,101128.59
2023-05-19T09:05:51.722Z,101125.14
2023-05-19T09:09:53.758Z,101124.26
2023-05-19T09:13:55.803Z,101129.96
2023-05-19T09:18:15.889Z,101129.58
2023-05-19T09:22:20.730Z,101128.16
2023-05-19T09:26:22.992Z,101130.36
2023-05-19T09:30:25.624Z,101127.08
2023-05-19T09:34:27.767Z,101127.02
2023-05-19T09:38:29.696Z,101127.47
2023-05-19T09:42:37.334Z,101132.17
2023-05-19T09:46:47.860Z,101134.73
2023-05-19T09:50:51.460Z,101130.31
2023-05-19T09:54:55.687Z,101135.61
2023-05-19T09:58:57.773Z,101131.86
2023-05-19T10:03:01.728Z,101129.65
2023-05-19T10:07:05.775Z,101130.69
2023-05-19T10:11:09.674Z,101130.70
2023-05-19T10:15:13.745Z,101131.10
2023-05-19T10:19:16.367Z,101130.23
2023-05-19T10:23:18.594Z,101131.04
2023-05-19T10:27:21.372Z,101129.73
2023-05-19T10:31:25.149Z,101127.73
2023-05-19T10:35:39.562Z,101129.92
2023-05-19T10:39:45.878Z,101123.51
2023-05-19T10:44:24.664Z,101121.92
2023-05-19T10:48:32.648Z,101118.65
2023-05-19T10:52:39.986Z,101122.73
2023-05-19T10:56:46.982Z,101123.85
2023-05-19T11:01:00.497Z,101123.88
2023-05-19T11:05:19.994Z,101124.13
2023-05-19T11:09:34.015Z,101123.60
2023-05-19T11:13:57.383Z,101123.29
2023-05-19T11:18:01.857Z,101122.49
2023-05-19T11:22:13.797Z,101119.52
2023-05-19T11:26:16.175Z,101118.80
2023-05-19T11:30:19.730Z,101119.69
2023-05-19T11:34:25.568Z,101128.20
2023-05-19T11:38:29.596Z,101130.11
2023-05-19T11:42:31.966Z,101121.89
2023-05-19T11:46:34.456Z,101124.39
2023-05-19T11:50:37.961Z,101120.76
2023-05-19T11:54:41.783Z,101121.53
2023-05-19T11:58:43.761Z,101123.67
2023-05-19T12:02:45.831Z,101123.15
2023-05-19T12:06:52.523Z,101123.05
2023-05-19T12:10:55.696Z,101123.92
2023-05-19T12:14:58.605Z,101124.32
2023-05-19T12:19:04.635Z,101123.52
2023-05-19T12:23:09.317Z,101120.33
2023-05-19T12:27:28.396Z,101115.08
2023-05-19T12:31:36.021Z,101110.74
2023-05-19T12:35:37.987Z,101114.02
2023-05-19T12:39:46.168Z,101109.66
2023-05-19T12:43:50.428Z,101109.00
2023-05-19T12:47:52.697Z,101108.32
2023-05-19T12:51:54.815Z,101111.02
2023-05-19T12:55:56.864Z,101113.77
2023-05-19T13:00:07.713Z,101114.48
2023-05-19T13:04:09.936Z,101109.65
2023-05-19T13:08:17.745Z,101113.96
2023-05-19T13:12:20.181Z,101108.67
2023-05-19T13:16:22.149Z,101103.94
2023-05-19T13:20:26.294Z,101103.92
2023-05-19T13:24:30.251Z,101102.23
2023-05-19T13:28:32.201Z,101102.48
2023-05-19T13:32:34.289Z,101105.58
2023-05-19T13:36:36.309Z,101105.50
2023-05-19T13:40:40.885Z,101106.31
2023-05-19T13:44:44.998Z,101107.56
2023-05-19T13:48:49.402Z,101100.66
2023-05-19T13:52:51.488Z,101099.73
2023-05-19T13:56:53.734Z,101102.12
2023-05-19T14:00:56.476Z,101097.52
2023-05-19T14:05:00.360Z,101097.64
2023-05-19T14:09:02.671Z,101094.13
2023-05-19T14:13:30.415Z,101098.11
2023-05-19T14:17:29.520Z,101101.55
2023-05-19T14:21:35.689Z,101101.84
2023-05-19T14:25:42.824Z,101101.64
2023-05-19T14:29:45.142Z,101105.61
2023-05-19T14:33:48.940Z,101109.30
2023-05-19T14:37:56.242Z,101111.14
2023-05-19T14:42:02.722Z,101114.28
2023-05-19T14:46:07.246Z,101113.91
2023-05-19T14:50:12.597Z,101117.44
2023-05-19T14:54:16.116Z,101114.91
2023-05-19T14:58:28.236Z,101114.59
2023-05-19T15:02:33.875Z,101116.04
2023-05-19T15:06:39.864Z,101114.91
2023-05-19T15:10:50.954Z,101117.38
2023-05-19T15:14:57.782Z,101121.95
2023-05-19T15:19:00.107Z,101119.69
2023-05-19T15:23:02.149Z,101123.25
2023-05-19T15:27:05.482Z,101120.70
2023-05-19T15:31:07.798Z,101113.32
2023-05-19T15:35:13.984Z,101111.16
2023-05-19T15:39:16.497Z,101106.73
2023-05-19T15:43:21.584Z,101106.45
2023-05-19T15:47:24.081Z,101107.58
2023-05-19T15:51:31.269Z,101107.55
2023-05-19T15:55:34.688Z,101101.64
2023-05-19T15:59:38.170Z,101104.52
2023-05-19T16:03:41.047Z,101102.75
2023-05-19T16:07:43.138Z,101102.02
2023-05-19T16:11:46.175Z,101099.70
2023-05-19T16:15:52.049Z,101099.81
2023-05-19T16:19:55.826Z,101103.37
2023-05-19T16:24:01.120Z,101103.59
2023-05-19T16:28:04.403Z,101104.94
2023-05-19T16:32:08.501Z,101107.10
2023-05-19T16:36:10.904Z,101108.77
2023-05-19T16:40:15.197Z,101108.31
2023-05-19T16:44:20.972Z,101105.39
2023-05-19T16:48:33.684Z,101110.86
2023-05-19T16:52:56.077Z,101112.14
2023-05-19T16:57:44.934Z,101108.96
2023-05-19T17:02:14.999Z,101109.76
2023-05-19T17:06:42.047Z,101111.67
2023-05-19T17:11:13.581Z,101115.61
2023-05-19T17:15:40.421Z,101116.46
2023-05-19T17:20:15.176Z,101119.52
2023-05-19T17:24:31.646Z,101118.20
2023-05-19T17:28:52.579Z,101116.20
2023-05-19T17:33:05.613Z,101117.11
2023-05-19T17:37:25.959Z,101114.52
2023-05-19T17:41:44.259Z,101114.27
2023-05-19T17:46:09.054Z,101115.96
2023-05-19T17:50:11.917Z,101118.34
2023-05-19T17:54:15.187Z,101117.98
2023-05-19T17:58:20.359Z,101121.48
2023-05-19T18:02:25.787Z,101122.41
2023-05-19T18:06:32.055Z,101123.98
2023-05-19T18:10:37.397Z,101124.78
2023-05-19T18:14:41.482Z,101126.11
2023-05-19T18:18:50.162Z,101129.77
2023-05-19T18:22:53.178Z,101131.49
2023-05-19T18:26:56.265Z,101132.63
2023-05-19T18:31:00.533Z,101138.88
2023-05-19T18:35:04.574Z,101139.48
2023-05-19T18:39:08.260Z,101140.11
2023-05-19T18:43:11.365Z,101141.81
2023-05-19T18:47:15.291Z,101141.28
2023-05-19T18:51:19.531Z,101137.95
2023-05-19T18:55:22.458Z,101140.96
2023-05-19T18:59:25.405Z,101146.27
2023-05-19T19:03:29.148Z,101145.35
2023-05-19T19:07:31.344Z,101151.21
2023-05-19T19:11:35.576Z,101154.17
2023-05-19T19:15:40.279Z,101160.79
2023-05-19T19:19:43.442Z,101163.02
2023-05-19T19:23:46.200Z,101161.67
2023-05-19T19:27:48.244Z,101162.59
2023-05-19T19:31:51.201Z,101165.26
2023-05-19T19:35:53.231Z,101168.05
2023-05-19T19:40:08.703Z,101164.83
2023-05-19T19:44:13.436Z,101163.15
2023-05-19T19:48:16.973Z,101168.28
2023-05-19T19:52:20.039Z,101171.29
2023-05-19T19:56:24.376Z,101175.20
2023-05-19T20:00:27.238Z,101177.77
2023-05-19T20:04:30.194Z,101174.17
2023-05-19T20:08:32.359Z,101171.95
2023-05-19T20:12:36.154Z,101175.47
2023-05-19T20:16:40.670Z,101176.80
2023-05-19T20:20:48.984Z,101180.62
2023-05-19T20:24:58.472Z,101182.48
2023-05-19T20:29:01.137Z,101179.34
2023-05-19T20:33:04.575Z,101185.87
2023-05-19T20:37:09.834Z,101183.92
2023-05-19T20:41:12.333Z,101178.27
2023-05-19T20:45:18.465Z,101174.56
2023-05-19T20:49:24.137Z,101169.21
2023-05-19T20:53:28.509Z,101170.93
2023-05-19T20:57:32.687Z,101171.00
2023-05-19T21:01:36.126Z,101167.85
2023-05-19T21:05:42.597Z,101172.05
2023-05-19T21:09:49.982Z,101173.88
2023-05-19T21:13:51.934Z,101173.55
2023-05-19T21:17:56.592Z,101175.85
2023-05-19T21:22:00.995Z,101182.52
2023-05-19T21:26:04.527Z,101183.65
2023-05-19T21:30:10.101Z,101181.36
2023-05-19T21:34:12.289Z,101181.54
2023-05-19T21:42:26.277Z,101175.67
2023-05-19T21:46:31.222Z,101181.40
2023-05-19T21:50:38.600Z,101184.61
2023-05-19T21:54:42.314Z,101185.08
2023-05-19T21:58:45.006Z,101187.96
2023-05-19T22:02:47.161Z,101182.71
2023-05-19T22:06:50.033Z,101181.34
2023-05-19T22:10:53.678Z,101180.74
2023-05-19T22:14:56.984Z,101185.40
2023-05-19T22:19:00.306Z,101182.45
2023-05-19T22:23:03.503Z,101179.92
2023-05-19T22:27:07.982Z,101180.48
2023-05-19T22:31:10.746Z,101184.02
2023-05-19T22:35:16.091Z,101184.98
2023-05-19T22:39:19.278Z,101182.80
2023-05-19T22:43:22.172Z,101182.41
2023-05-19T22:47:25.219Z,101180.20
2023-05-19T22:51:27.899Z,101177.50
2023-05-19T22:55:31.182Z,101176.08
2023-05-19T22:59:38.164Z,101169.34
2023-05-19T23:03:41.483Z,101164.52
2023-05-19T23:07:44.366Z,101158.43
2023-05-19T23:11:48.191Z,101156.17
2023-05-19T23:15:50.208Z,101154.19
2023-05-19T23:19:52.288Z,101155.40
2023-05-19T23:23:55.368Z,101149.40
2023-05-19T23:27:57.578Z,101150.86
2023-05-19T23:32:00.230Z,101148.73
2023-05-19T23:36:10.951Z,101150.67
2023-05-19T23:40:13.577Z,101147.08
2023-05-19T23:44:16.054Z,101148.31
2023-05-19T23:48:18.437Z,101151.63
2023-05-19T23:52:20.962Z,101152.16
2023-05-19T23:56:23.039Z,101147.68
